Time;durP1;ratioP1;P1;durP2;ratioP2;P2;SDS_P1;SDS_P2;PMS_P1;PMS_P2;Temp;Humidity;BMP_temperature;BMP_pressure;BME280_temperature;BME280_humidity;BME280_pressure;Samples;Min_cycle;Max_cycle;Signal;HPM_P1;HPM_P2
2023/12/05 00:01:08;;;;;;;14.13;8.77;;;;;;;0.99;100.00;97008.00;5061292;28;20232;-79
2023/12/05 00:03:35;;;;;;;16.57;9.67;;;;;;;1.00;100.00;97001.03;5061239;28;20224;-79
2023/12/05 00:06:01;;;;;;;15.47;9.90;;;;;;;1.05;100.00;97007.69;5060458;28;20228;-79
2023/12/05 00:08:28;;;;;;;16.53;10.10;;;;;;;1.04;100.00;97000.00;5061009;28;20674;-79
2023/12/05 00:10:55;;;;;;;13.40;9.17;;;;;;;1.05;100.00;97005.09;5060522;28;20208;-79
2023/12/05 00:13:22;;;;;;;13.63;8.90;;;;;;;1.05;100.00;97002.50;5058791;28;20224;-80
2023/12/05 00:15:49;;;;;;;16.77;9.83;;;;;;;1.08;100.00;96991.94;5060419;28;20212;-79
2023/12/05 00:18:16;;;;;;;17.23;10.07;;;;;;;1.06;100.00;96992.94;5060587;28;20226;-79
2023/12/05 00:20:42;;;;;;;15.07;8.93;;;;;;;1.03;100.00;96991.31;5059629;28;20222;-79
2023/12/05 00:23:08;;;;;;;16.70;9.53;;;;;;;1.02;100.00;96988.78;5060598;28;20208;-79
2023/12/05 00:25:35;;;;;;;16.23;9.37;;;;;;;1.03;100.00;96993.06;5059941;28;20742;-79
2023/12/05 00:28:01;;;;;;;19.53;10.10;;;;;;;1.07;100.00;96986.81;5060913;28;20208;-78
2023/12/05 00:30:29;;;;;;;14.07;8.33;;;;;;;1.00;100.00;96977.63;5061803;28;20219;-79
2023/12/05 00:32:56;;;;;;;17.20;9.27;;;;;;;1.00;100.00;96993.25;5060909;28;20236;-79
2023/12/05 00:35:22;;;;;;;12.00;8.83;;;;;;;0.98;100.00;96985.50;5059847;28;20200;-79
2023/12/05 00:37:49;;;;;;;14.43;9.43;;;;;;;1.01;100.00;96990.56;5059730;28;20586;-79
2023/12/05 00:40:15;;;;;;;13.33;8.70;;;;;;;1.00;100.00;96990.63;5060052;28;20220;-79
2023/12/05 00:42:42;;;;;;;13.87;9.40;;;;;;;1.07;100.00;96990.25;5060189;28;20718;-79
2023/12/05 00:45:11;;;;;;;15.80;8.33;;;;;;;1.05;100.00;96993.84;5059185;28;20304;-79
2023/12/05 00:47:39;;;;;;;15.23;8.57;;;;;;;1.06;100.00;96993.75;5059825;28;20213;-79
2023/12/05 00:50:06;;;;;;;16.60;8.33;;;;;;;1.13;100.00;96995.16;5061787;28;20212;-79
2023/12/05 00:52:33;;;;;;;12.17;8.03;;;;;;;1.06;100.00;96993.75;5061104;28;20315;-79
2023/12/05 00:54:59;;;;;;;11.80;7.63;;;;;;;1.05;100.00;96994.69;5060212;28;20265;-79
2023/12/05 00:57:26;;;;;;;14.00;8.40;;;;;;;1.11;100.00;96985.75;5060482;28;20211;-79
2023/12/05 00:59:53;;;;;;;12.83;7.73;;;;;;;1.10;100.00;96982.28;5060040;28;20585;-79
2023/12/05 01:02:19;;;;;;;13.10;7.27;;;;;;;1.14;100.00;96991.63;5060512;28;20229;-79
2023/12/05 01:04:47;;;;;;;13.93;8.07;;;;;;;1.14;100.00;96991.63;5061065;28;20254;-79
2023/12/05 01:07:14;;;;;;;10.37;6.77;;;;;;;1.16;100.00;96992.38;5061295;28;20224;-79
2023/12/05 01:09:41;;;;;;;9.87;6.43;;;;;;;1.19;100.00;97000.06;5061538;28;20207;-79
2023/12/05 01:12:11;;;;;;;12.47;7.00;;;;;;;1.26;100.00;97001.44;5060892;28;20233;-80
2023/12/05 01:14:38;;;;;;;11.30;6.63;;;;;;;1.23;100.00;97006.78;5061069;28;20581;-79
2023/12/05 01:17:04;;;;;;;11.37;6.17;;;;;;;1.25;100.00;97004.97;5062272;28;20204;-79
2023/12/05 01:19:32;;;;;;;8.73;5.67;;;;;;;1.28;100.00;97015.19;5061554;28;20703;-79
2023/12/05 01:22:00;;;;;;;7.90;5.20;;;;;;;1.32;100.00;97011.53;5061569;28;20232;-79
2023/12/05 01:24:27;;;;;;;8.33;5.23;;;;;;;1.32;100.00;97008.06;5061187;28;20950;-79
2023/12/05 01:26:54;;;;;;;9.10;5.13;;;;;;;1.33;100.00;97000.19;5060415;28;20598;-79
2023/12/05 01:29:20;;;;;;;10.23;5.17;;;;;;;1.35;100.00;97013.13;5060697;28;20579;-79
2023/12/05 01:31:47;;;;;;;6.27;4.77;;;;;;;1.35;100.00;97019.16;5060457;28;20240;-79
2023/12/05 01:34:13;;;;;;;7.50;4.60;;;;;;;1.38;100.00;97013.81;5060034;28;20200;-79
2023/12/05 01:36:40;;;;;;;7.43;4.30;;;;;;;1.36;100.00;97013.03;5060408;28;20682;-79
2023/12/05 01:39:07;;;;;;;7.17;5.10;;;;;;;1.42;100.00;97010.13;5060773;28;20215;-79
2023/12/05 01:41:34;;;;;;;6.47;4.47;;;;;;;1.44;100.00;97010.91;5060194;28;20238;-79
2023/12/05 01:44:00;;;;;;;8.43;4.57;;;;;;;1.49;100.00;97014.13;5060006;28;20215;-79
2023/12/05 01:46:27;;;;;;;8.90;4.20;;;;;;;1.52;100.00;97019.16;5060175;28;20230;-79
2023/12/05 01:48:53;;;;;;;5.63;4.07;;;;;;;1.56;100.00;97009.44;5058824;28;20702;-79
2023/12/05 01:51:20;;;;;;;5.90;4.40;;;;;;;1.61;100.00;97010.84;5053591;28;20238;-77
2023/12/05 01:53:47;;;;;;;5.43;3.63;;;;;;;1.63;100.00;97011.63;5058939;28;20216;-79
2023/12/05 01:56:15;;;;;;;5.70;3.80;;;;;;;1.64;100.00;97013.31;5059738;28;20204;-79
2023/12/05 01:58:42;;;;;;;4.87;3.37;;;;;;;1.63;100.00;97016.84;5059691;28;20209;-79
2023/12/05 02:01:11;;;;;;;5.67;3.73;;;;;;;1.63;100.00;97016.00;5060519;28;20318;-78
2023/12/05 02:03:39;;;;;;;6.07;3.80;;;;;;;1.64;100.00;97028.94;5061311;28;20220;-79
2023/12/05 02:06:06;;;;;;;4.37;3.40;;;;;;;1.64;100.00;97018.53;5060159;28;20236;-79
2023/12/05 02:08:33;;;;;;;5.60;3.70;;;;;;;1.67;100.00;97010.53;5060474;28;20211;-79
2023/12/05 02:10:59;;;;;;;5.20;3.50;;;;;;;1.60;100.00;97017.00;5060338;28;21518;-79
2023/12/05 02:13:27;;;;;;;5.10;3.17;;;;;;;1.57;100.00;97011.97;5059430;28;20238;-79
2023/12/05 02:16:04;;;;;;;3.70;3.07;;;;;;;1.54;100.00;97016.47;5059622;28;20208;-79
2023/12/05 02:18:37;;;;;;;4.93;3.30;;;;;;;1.49;100.00;97008.06;5058631;28;20218;-79
2023/12/05 02:21:10;;;;;;;4.23;3.20;;;;;;;1.49;100.00;97016.72;5059381;28;20695;-80
2023/12/05 02:24:01;;;;;;;4.63;3.60;;;;;;;1.38;100.00;97016.44;5058500;28;20199;-80
2023/12/05 02:26:36;;;;;;;4.27;3.00;;;;;;;1.34;100.00;97009.69;5059348;28;20228;-79
2023/12/05 02:29:04;;;;;;;4.97;3.30;;;;;;;1.25;100.00;97010.16;5058717;28;20627;-80
2023/12/05 02:31:31;;;;;;;4.07;3.07;;;;;;;1.19;100.00;97010.47;5059505;28;20235;-79
2023/12/05 02:33:57;;;;;;;6.33;3.67;;;;;;;1.11;100.00;97004.78;5053485;28;20234;-78
2023/12/05 02:36:29;;;;;;;5.33;3.30;;;;;;;1.08;100.00;97001.50;5059340;28;20204;-80
2023/12/05 02:39:05;;;;;;;5.73;3.67;;;;;;;1.06;100.00;97004.16;5059366;28;20219;-79
2023/12/05 02:41:34;;;;;;;5.27;3.27;;;;;;;1.12;100.00;97014.25;5059488;28;20231;-78
2023/12/05 02:44:10;;;;;;;4.83;3.00;;;;;;;1.12;100.00;97009.06;5057946;28;20243;-78
2023/12/05 02:46:38;;;;;;;5.67;3.53;;;;;;;1.13;100.00;97015.97;5058767;28;20607;-78
2023/12/05 02:49:05;;;;;;;4.87;3.40;;;;;;;1.20;100.00;97012.16;5058152;28;20215;-78
2023/12/05 02:51:32;;;;;;;4.17;3.03;;;;;;;1.22;100.00;97015.50;5057720;28;20605;-78
2023/12/05 02:54:01;;;;;;;6.30;3.33;;;;;;;1.20;100.00;97017.34;5058144;28;20204;-79
2023/12/05 02:56:28;;;;;;;4.47;3.33;;;;;;;1.26;100.00;97010.97;5058143;28;20292;-78
2023/12/05 02:58:55;;;;;;;6.87;3.80;;;;;;;1.35;100.00;97024.38;5057944;28;20220;-78
2023/12/05 03:01:22;;;;;;;5.77;3.63;;;;;;;1.36;100.00;97018.25;5058162;28;20232;-78
2023/12/05 03:03:49;;;;;;;3.97;3.07;;;;;;;1.32;100.00;97023.69;5057988;28;20702;-78
2023/12/05 03:06:15;;;;;;;5.37;3.70;;;;;;;1.29;100.00;97029.88;5058191;28;20238;-78
2023/12/05 03:08:42;;;;;;;4.90;3.03;;;;;;;1.24;100.00;97037.06;5058361;28;20212;-78
2023/12/05 03:11:08;;;;;;;4.67;2.93;;;;;;;1.21;100.00;97041.59;5058608;28;20234;-78
2023/12/05 03:13:38;;;;;;;5.53;3.27;;;;;;;1.19;100.00;97036.50;5059080;28;20797;-78
2023/12/05 03:16:06;;;;;;;4.47;3.13;;;;;;;1.19;100.00;97039.09;5057969;28;20208;-78
2023/12/05 03:18:34;;;;;;;5.37;3.47;;;;;;;1.30;100.00;97034.16;5058340;28;20208;-80
2023/12/05 03:21:00;;;;;;;4.90;3.60;;;;;;;1.37;100.00;97038.19;5058602;28;20655;-80
2023/12/05 03:23:27;;;;;;;6.50;4.00;;;;;;;1.43;100.00;97035.25;5059256;28;20208;-78
2023/12/05 03:25:53;;;;;;;8.17;4.30;;;;;;;1.53;100.00;97030.44;5058272;28;20218;-78
2023/12/05 03:28:20;;;;;;;5.93;3.23;;;;;;;1.57;100.00;97027.59;5058874;28;20212;-78
2023/12/05 03:30:46;;;;;;;6.00;3.90;;;;;;;1.61;100.00;97034.28;5059963;28;20231;-78
2023/12/05 03:33:13;;;;;;;5.67;3.70;;;;;;;1.60;100.00;97035.22;5060016;28;20204;-80
2023/12/05 03:35:41;;;;;;;4.80;3.67;;;;;;;1.54;100.00;97038.13;5058389;28;20544;-79
2023/12/05 03:38:07;;;;;;;4.67;3.53;;;;;;;1.57;100.00;97042.34;5059542;28;20210;-79
2023/12/05 03:40:34;;;;;;;6.20;3.60;;;;;;;1.55;100.00;97034.63;5059059;28;20211;-79
2023/12/05 03:43:00;;;;;;;6.63;4.07;;;;;;;1.49;100.00;97034.94;5059013;28;20224;-79
2023/12/05 03:45:26;;;;;;;4.50;3.60;;;;;;;1.47;100.00;97035.94;5058050;28;20212;-79
2023/12/05 03:47:53;;;;;;;5.63;3.40;;;;;;;1.46;100.00;97036.84;5057992;28;20224;-78
2023/12/05 03:50:19;;;;;;;5.60;3.37;;;;;;;1.48;100.00;97037.63;5058555;28;20211;-78
2023/12/05 03:52:47;;;;;;;6.87;4.00;;;;;;;1.55;100.00;97039.84;5057531;28;20242;-80
2023/12/05 03:55:14;;;;;;;5.30;3.80;;;;;;;1.57;100.00;97032.78;5058445;28;20704;-78
2023/12/05 03:57:40;;;;;;;6.10;3.80;;;;;;;1.60;100.00;97043.03;5059022;28;20579;-78
2023/12/05 04:00:10;;;;;;;5.90;3.43;;;;;;;1.59;100.00;97038.75;5058404;28;20235;-78
2023/12/05 04:02:36;;;;;;;5.63;3.60;;;;;;;1.51;100.00;97040.91;5058511;28;20295;-78
2023/12/05 04:05:03;;;;;;;4.97;3.37;;;;;;;1.39;100.00;97036.31;5055469;28;20220;-80
2023/12/05 04:07:29;;;;;;;5.23;3.53;;;;;;;1.34;100.00;97029.66;5055062;28;20229;-79
2023/12/05 04:09:57;;;;;;;5.40;3.53;;;;;;;1.23;100.00;97038.00;5057781;28;20208;-79
2023/12/05 04:12:23;;;;;;;5.37;3.77;;;;;;;1.18;100.00;97039.97;5061084;28;20298;-79
2023/12/05 04:14:50;;;;;;;5.10;3.40;;;;;;;1.12;100.00;97040.28;5060874;28;20212;-78
2023/12/05 04:17:16;;;;;;;6.60;3.77;;;;;;;1.10;100.00;97042.13;5061524;28;20208;-79
2023/12/05 04:19:43;;;;;;;6.60;4.00;;;;;;;1.04;100.00;97042.44;5061172;28;20208;-80
2023/12/05 04:22:09;;;;;;;5.73;4.10;;;;;;;1.11;100.00;97043.81;5060507;28;20232;-78
2023/12/05 04:24:36;;;;;;;8.10;4.43;;;;;;;1.15;100.00;97045.34;5060834;28;20212;-81
2023/12/05 04:27:04;;;;;;;6.00;3.87;;;;;;;1.13;100.00;97049.81;5061065;28;20236;-78
2023/12/05 04:29:31;;;;;;;7.17;4.30;;;;;;;1.14;100.00;97041.06;5060669;28;20215;-78
2023/12/05 04:31:59;;;;;;;5.83;3.87;;;;;;;1.15;100.00;97047.09;5061035;28;20232;-78
2023/12/05 04:34:25;;;;;;;6.07;3.80;;;;;;;1.20;100.00;97042.50;5060579;28;20212;-79
2023/12/05 04:36:52;;;;;;;5.77;3.77;;;;;;;1.20;100.00;97042.50;5060210;28;20213;-79
2023/12/05 04:39:18;;;;;;;6.63;4.13;;;;;;;1.23;100.00;97043.22;5060912;28;20569;-78
2023/12/05 04:41:45;;;;;;;6.10;4.10;;;;;;;1.32;100.00;97052.31;5061604;28;20239;-79
2023/12/05 04:44:12;;;;;;;6.67;4.10;;;;;;;1.30;100.00;97047.19;5060098;28;20208;-79
2023/12/05 04:46:39;;;;;;;6.50;4.00;;;;;;;1.27;100.00;97049.09;5060833;28;20228;-79
2023/12/05 04:49:06;;;;;;;7.10;3.80;;;;;;;1.26;100.00;97048.28;5060950;28;20223;-79
2023/12/05 04:51:32;;;;;;;6.13;3.93;;;;;;;1.27;100.00;97049.94;5059798;28;20297;-79
2023/12/05 04:53:59;;;;;;;5.10;3.20;;;;;;;1.22;100.00;97041.53;5059584;28;20243;-79
2023/12/05 04:56:25;;;;;;;6.57;4.00;;;;;;;1.21;100.00;97039.00;5060272;28;20204;-79
2023/12/05 04:58:52;;;;;;;5.43;3.57;;;;;;;1.16;100.00;97030.59;5059772;28;20541;-79
2023/12/05 05:01:19;;;;;;;5.67;3.90;;;;;;;1.17;100.00;97030.50;5060605;28;20723;-79
2023/12/05 05:03:46;;;;;;;5.23;3.43;;;;;;;1.13;100.00;97031.59;5059567;28;20220;-79
2023/12/05 05:06:12;;;;;;;5.27;3.43;;;;;;;1.08;100.00;97030.97;5059486;28;20219;-78
2023/12/05 05:08:39;;;;;;;6.00;3.60;;;;;;;1.03;100.00;97030.34;5059697;28;20228;-79
2023/12/05 05:11:06;;;;;;;4.93;3.50;;;;;;;1.01;100.00;97026.13;5059545;28;20228;-79
2023/12/05 05:13:32;;;;;;;4.80;3.30;;;;;;;1.00;100.00;97030.47;5060030;28;20211;-79
2023/12/05 05:15:58;;;;;;;6.00;3.20;;;;;;;0.99;100.00;97026.19;5059551;28;20244;-79
2023/12/05 05:18:26;;;;;;;7.13;3.67;;;;;;;0.98;100.00;97024.53;5060036;28;20215;-79
2023/12/05 05:20:53;;;;;;;5.87;3.30;;;;;;;1.00;100.00;97035.69;5060068;28;20208;-79
2023/12/05 05:23:19;;;;;;;6.17;3.50;;;;;;;1.01;100.00;97032.19;5060670;28;20295;-79
2023/12/05 05:25:46;;;;;;;6.07;2.90;;;;;;;1.11;100.00;97032.56;5059471;28;20208;-79
2023/12/05 05:28:13;;;;;;;4.60;3.13;;;;;;;1.12;100.00;97023.84;5060187;28;20225;-79
2023/12/05 05:30:39;;;;;;;4.07;3.03;;;;;;;1.24;100.00;97024.06;5060478;28;20648;-80
2023/12/05 05:33:06;;;;;;;5.37;3.00;;;;;;;1.31;100.00;97017.66;5060522;28;20214;-80
2023/12/05 05:35:33;;;;;;;4.23;2.80;;;;;;;1.53;100.00;97015.63;5057093;28;20215;-78
2023/12/05 05:38:00;;;;;;;4.77;2.53;;;;;;;1.81;100.00;97015.91;5060222;28;20211;-81
2023/12/05 05:40:27;;;;;;;5.03;2.50;;;;;;;1.92;100.00;97026.59;5059015;28;20224;-78
2023/12/05 05:42:54;;;;;;;5.13;2.80;;;;;;;2.05;100.00;97030.22;5059838;28;20322;-79
2023/12/05 05:45:20;;;;;;;6.13;2.43;;;;;;;2.06;100.00;97024.09;5058889;28;20593;-79
2023/12/05 05:47:47;;;;;;;3.27;2.30;;;;;;;2.05;100.00;97030.22;5055911;28;20236;-79
2023/12/05 05:50:13;;;;;;;2.60;2.00;;;;;;;2.13;100.00;97022.84;5055764;28;20212;-79
2023/12/05 05:52:43;;;;;;;3.10;2.13;;;;;;;2.16;100.00;97027.91;5054663;28;20228;-79
2023/12/05 05:55:09;;;;;;;2.60;1.80;;;;;;;2.22;100.00;97042.34;5054747;28;20659;-78
2023/12/05 05:57:36;;;;;;;2.97;1.97;;;;;;;2.18;100.00;97035.63;5057999;28;20204;-78
2023/12/05 06:00:03;;;;;;;2.53;1.90;;;;;;;2.20;100.00;97045.03;5057671;28;20687;-81
2023/12/05 06:02:30;;;;;;;2.27;1.60;;;;;;;2.17;100.00;97045.22;5060406;28;20246;-79
2023/12/05 06:04:56;;;;;;;4.37;1.90;;;;;;;2.11;100.00;97040.34;5059723;28;20226;-78
2023/12/05 06:07:23;;;;;;;3.20;1.97;;;;;;;2.04;100.00;97044.19;5058770;28;20228;-78
2023/12/05 06:09:51;;;;;;;3.33;2.03;;;;;;;1.96;100.00;97043.72;5056679;28;20265;-78
2023/12/05 06:12:18;;;;;;;2.63;2.10;;;;;;;1.83;100.00;97052.28;5054696;28;20267;-78
2023/12/05 06:14:44;;;;;;;3.67;2.13;;;;;;;1.76;100.00;97049.16;5054034;28;20208;-78
2023/12/05 06:17:10;;;;;;;3.43;2.27;;;;;;;1.60;100.00;97043.03;5056760;28;20210;-78
2023/12/05 06:19:37;;;;;;;3.13;2.30;;;;;;;1.45;100.00;97051.63;5059459;28;20678;-78
2023/12/05 06:22:04;;;;;;;3.33;2.80;;;;;;;1.33;100.00;97044.44;5055905;28;20247;-78
2023/12/05 06:24:30;;;;;;;4.33;2.67;;;;;;;1.29;100.00;97048.09;5055019;28;20208;-78
2023/12/05 06:26:59;;;;;;;3.83;2.40;;;;;;;1.30;100.00;97055.00;5056954;28;20561;-78
2023/12/05 06:29:25;;;;;;;3.47;2.53;;;;;;;1.27;100.00;97049.09;5058035;28;20207;-78
2023/12/05 06:31:52;;;;;;;3.40;2.23;;;;;;;1.33;100.00;97056.59;5056390;28;20225;-78
2023/12/05 06:34:18;;;;;;;3.83;3.10;;;;;;;1.43;100.00;97063.03;5056451;28;20212;-79
2023/12/05 06:36:45;;;;;;;4.13;2.73;;;;;;;1.42;100.00;97062.19;5057517;28;20208;-79
2023/12/05 06:39:11;;;;;;;4.97;2.80;;;;;;;1.39;100.00;97062.34;5057257;28;20208;-79
2023/12/05 06:41:38;;;;;;;4.97;2.60;;;;;;;1.49;100.00;97063.59;5057465;28;20228;-79
2023/12/05 06:44:06;;;;;;;4.83;2.77;;;;;;;1.46;100.00;97065.47;5057079;28;20559;-79
2023/12/05 06:46:33;;;;;;;4.70;2.70;;;;;;;1.42;100.00;97070.00;5057723;28;20390;-79
2023/12/05 06:49:00;;;;;;;5.07;2.80;;;;;;;1.36;100.00;97075.50;5057164;28;20228;-79
2023/12/05 06:51:26;;;;;;;4.53;2.50;;;;;;;1.43;100.00;97066.50;5057970;28;20234;-78
2023/12/05 06:53:53;;;;;;;4.50;2.73;;;;;;;1.49;100.00;97060.97;5058702;28;20208;-81
2023/12/05 06:56:21;;;;;;;4.70;2.73;;;;;;;1.49;100.00;97060.97;5057870;28;20208;-79
2023/12/05 06:58:48;;;;;;;5.27;2.87;;;;;;;1.48;100.00;97059.28;5057029;28;20224;-78
2023/12/05 07:01:15;;;;;;;3.87;2.30;;;;;;;1.55;100.00;97065.88;5056628;28;20239;-79
2023/12/05 07:03:42;;;;;;;3.70;2.60;;;;;;;1.55;100.00;97071.09;5056382;28;20239;-78
2023/12/05 07:06:09;;;;;;;4.90;3.03;;;;;;;1.54;100.00;97073.75;5055456;28;20302;-79
2023/12/05 07:08:36;;;;;;;4.90;2.57;;;;;;;1.58;100.00;97083.94;5055987;28;20701;-78
2023/12/05 07:11:02;;;;;;;2.77;1.97;;;;;;;1.59;100.00;97083.00;5057407;28;20327;-80
2023/12/05 07:13:29;;;;;;;5.37;2.57;;;;;;;1.65;100.00;97076.66;5058918;28;20656;-79
2023/12/05 07:15:56;;;;;;;4.97;2.20;;;;;;;1.64;100.00;97082.78;5059462;28;20212;-80
2023/12/05 07:18:24;;;;;;;7.13;3.07;;;;;;;1.69;100.00;97086.84;5061023;28;20706;-79
2023/12/05 07:20:50;;;;;;;3.87;2.70;;;;;;;1.66;100.00;97097.41;5060113;28;20208;-79
2023/12/05 07:23:17;;;;;;;3.43;2.73;;;;;;;1.75;100.00;97109.97;5065611;28;20634;-79
2023/12/05 07:25:43;;;;;;;3.30;2.37;;;;;;;1.74;100.00;97097.88;5078058;28;20207;-79
2023/12/05 07:28:10;;;;;;;3.77;2.37;;;;;;;1.79;100.00;97100.25;5075935;28;20223;-80
2023/12/05 07:30:36;;;;;;;4.27;2.40;;;;;;;1.89;100.00;97107.50;5076283;28;20211;-79
2023/12/05 07:33:03;;;;;;;4.33;2.67;;;;;;;2.06;100.00;97114.44;5072916;28;20516;-78
2023/12/05 07:35:31;;;;;;;5.13;2.70;;;;;;;2.16;100.00;97111.31;5076202;28;20207;-80
2023/12/05 07:37:57;;;;;;;3.80;2.00;;;;;;;2.17;100.00;97117.34;5056832;28;20522;-78
2023/12/05 07:40:24;;;;;;;4.03;2.30;;;;;;;2.24;100.00;97123.91;5048769;28;20227;-80
2023/12/05 07:42:50;;;;;;;4.07;1.80;;;;;;;2.15;100.00;97125.22;5063519;28;20499;-77
2023/12/05 07:45:17;;;;;;;3.63;1.87;;;;;;;2.12;100.00;97129.75;5065769;28;20217;-77
2023/12/05 07:47:43;;;;;;;3.43;2.10;;;;;;;2.16;100.00;97132.16;5058175;28;20233;-78
2023/12/05 07:50:13;;;;;;;2.33;1.93;;;;;;;2.15;100.00;97133.06;5065087;28;20210;-82
2023/12/05 07:52:42;;;;;;;3.27;2.33;;;;;;;2.19;100.00;97147.63;5068212;28;20234;-79
2023/12/05 07:55:09;;;;;;;2.80;1.67;;;;;;;2.23;100.00;97143.94;5056780;28;20212;-78
2023/12/05 07:57:36;;;;;;;2.73;1.97;;;;;;;2.37;100.00;97151.88;5070359;28;20208;-79
2023/12/05 08:00:04;;;;;;;2.53;2.00;;;;;;;2.45;100.00;97149.69;5078604;28;20241;-79
2023/12/05 08:02:31;;;;;;;3.93;2.30;;;;;;;2.58;100.00;97150.72;5078669;28;20254;-79
2023/12/05 08:04:58;;;;;;;3.07;1.60;;;;;;;2.68;100.00;97156.28;5078112;28;20219;-79
2023/12/05 08:07:24;;;;;;;3.00;1.57;;;;;;;2.72;100.00;97147.38;5075317;28;20204;-79
2023/12/05 08:09:52;;;;;;;2.27;1.73;;;;;;;2.72;100.00;97143.03;5074492;28;20211;-79
2023/12/05 08:12:18;;;;;;;2.13;1.80;;;;;;;2.82;100.00;97143.38;5073725;28;20232;-80
2023/12/05 08:14:45;;;;;;;4.23;1.80;;;;;;;2.80;100.00;97145.19;5073072;28;20220;-78
2023/12/05 08:17:12;;;;;;;3.70;1.87;;;;;;;2.77;100.00;97151.44;5069827;28;20218;-77
2023/12/05 08:19:39;;;;;;;3.57;2.20;;;;;;;2.72;100.00;97152.59;5068299;28;20585;-77
2023/12/05 08:22:05;;;;;;;3.40;2.30;;;;;;;2.70;100.00;97157.91;5052246;28;20232;-77
2023/12/05 08:24:32;;;;;;;3.67;2.40;;;;;;;2.69;100.00;97158.81;5063028;28;20218;-77
2023/12/05 08:27:00;;;;;;;2.57;2.30;;;;;;;2.73;100.00;97151.69;5071691;28;20657;-77
2023/12/05 08:29:26;;;;;;;2.70;2.20;;;;;;;2.81;100.00;97152.94;5072489;28;20242;-77
2023/12/05 08:31:53;;;;;;;2.73;2.23;;;;;;;2.96;100.00;97156.50;5072564;28;20224;-77
2023/12/05 08:34:19;;;;;;;2.63;2.20;;;;;;;3.08;100.00;97151.47;5071301;28;20204;-77
2023/12/05 08:36:46;;;;;;;3.80;2.40;;;;;;;3.22;100.00;97148.91;5070035;28;20208;-78
2023/12/05 08:39:12;;;;;;;8.20;2.90;;;;;;;3.45;100.00;97145.88;5074132;28;20205;-78
2023/12/05 08:41:39;;;;;;;4.27;2.07;;;;;;;3.60;100.00;97160.66;5074894;28;20228;-78
2023/12/05 08:44:07;;;;;;;4.77;3.00;;;;;;;3.68;100.00;97168.88;5075093;28;20522;-78
2023/12/05 08:46:34;;;;;;;3.10;1.90;;;;;;;3.78;100.00;97170.06;5076346;28;20220;-77
2023/12/05 08:49:00;;;;;;;4.63;2.27;;;;;;;3.89;100.00;97167.66;5074864;28;20252;-78
2023/12/05 08:51:27;;;;;;;2.97;1.97;;;;;;;3.92;100.00;97162.25;5077246;28;20235;-80
2023/12/05 08:53:53;;;;;;;3.20;2.00;;;;;;;3.89;100.00;97172.91;5076728;28;20209;-79
2023/12/05 08:56:20;;;;;;;5.67;2.07;;;;;;;3.86;100.00;97173.06;5073956;28;20243;-78
2023/12/05 08:58:46;;;;;;;4.93;1.80;;;;;;;3.89;100.00;97174.66;5077586;28;20205;-79
2023/12/05 09:01:14;;;;;;;4.10;1.93;;;;;;;3.82;100.00;97176.78;5078251;28;20663;-78
2023/12/05 09:03:41;;;;;;;3.70;2.00;;;;;;;3.76;100.00;97187.59;5075824;28;20217;-79
2023/12/05 09:06:08;;;;;;;2.83;2.03;;;;;;;3.76;100.00;97187.59;5078046;28;20205;-79
2023/12/05 09:08:34;;;;;;;3.40;2.13;;;;;;;3.80;100.00;97194.31;5079370;28;20711;-81
2023/12/05 09:11:01;;;;;;;3.13;2.00;;;;;;;3.77;100.00;97184.06;5070612;28;20271;-78
2023/12/05 09:13:27;;;;;;;2.63;1.73;;;;;;;3.80;100.00;97178.63;5071943;28;20430;-79
2023/12/05 09:15:54;;;;;;;1.77;1.40;;;;;;;3.89;100.00;97174.66;5078764;28;20447;-79
2023/12/05 09:18:22;;;;;;;2.23;1.40;;;;;;;3.93;100.00;97178.78;5067200;28;20571;-79
2023/12/05 09:20:48;;;;;;;2.27;1.30;;;;;;;3.89;100.00;97187.72;5067909;28;20204;-79
2023/12/05 09:23:15;;;;;;;1.20;1.10;;;;;;;3.89;100.00;97187.72;5076789;28;20209;-79
2023/12/05 09:25:42;;;;;;;1.50;1.10;;;;;;;3.89;100.00;97196.41;5079615;28;20210;-79
2023/12/05 09:28:08;;;;;;;1.33;0.90;;;;;;;3.91;100.00;97202.38;5070532;28;20703;-79
2023/12/05 09:30:35;;;;;;;2.03;1.10;;;;;;;3.87;100.00;97211.34;5075780;28;20209;-79
2023/12/05 09:33:01;;;;;;;1.40;1.00;;;;;;;3.89;100.00;97209.47;5076352;28;20309;-80
2023/12/05 09:35:30;;;;;;;2.90;1.10;;;;;;;4.06;100.00;97211.97;5069505;28;20204;-79
2023/12/05 09:37:57;;;;;;;2.70;1.40;;;;;;;4.06;100.00;97201.50;5075093;28;20215;-80
2023/12/05 09:40:23;;;;;;;1.10;1.00;;;;;;;4.10;100.00;97202.19;5074993;28;20212;-80
2023/12/05 09:42:53;;;;;;;1.63;1.20;;;;;;;4.06;100.00;97196.28;5070921;28;20576;-79
2023/12/05 09:45:20;;;;;;;1.67;1.17;;;;;;;4.19;100.00;97193.78;5079464;28;20236;-81
2023/12/05 09:47:50;;;;;;;1.73;1.00;;;;;;;4.31;100.00;97199.13;5079433;28;20208;-82
2023/12/05 09:50:18;;;;;;;1.97;1.27;;;;;;;4.39;100.00;97194.28;5082501;28;20808;-81
2023/12/05 09:52:47;;;;;;;2.10;0.90;;;;;;;4.55;100.00;97189.84;5081107;28;20238;-79
2023/12/05 09:55:13;;;;;;;2.07;1.03;;;;;;;4.63;100.00;97192.81;5077244;28;20223;-80
2023/12/05 09:57:41;;;;;;;1.00;0.90;;;;;;;4.62;100.00;97185.91;5081685;28;20235;-80
2023/12/05 10:00:08;;;;;;;1.27;1.03;;;;;;;4.65;100.00;97188.31;5079384;28;20205;-80
2023/12/05 10:02:37;;;;;;;1.47;0.90;;;;;;;4.61;100.00;97188.59;5078982;28;20842;-80
2023/12/05 10:05:06;;;;;;;2.17;1.13;;;;;;;4.61;100.00;97191.22;5077910;28;20430;-81
2023/12/05 10:07:33;;;;;;;1.83;1.00;;;;;;;4.67;100.00;97183.84;5076744;28;20240;-80
2023/12/05 10:10:03;;;;;;;2.00;1.10;;;;;;;4.75;100.00;97181.59;5078022;28;20236;-80
2023/12/05 10:12:31;;;;;;;1.40;0.70;;;;;;;4.78;100.00;97176.19;5057037;28;20463;-80
2023/12/05 10:14:58;;;;;;;1.97;0.83;;;;;;;4.80;100.00;97176.94;5053610;28;20219;-79
2023/12/05 10:17:26;;;;;;;0.73;0.73;;;;;;;4.82;100.00;97182.91;5072952;28;20614;-79
2023/12/05 10:19:52;;;;;;;2.10;0.83;;;;;;;4.84;100.00;97181.03;5074305;28;20208;-80
2023/12/05 10:22:19;;;;;;;0.70;0.70;;;;;;;4.87;100.00;97173.00;5072786;28;20240;-79
2023/12/05 10:24:46;;;;;;;0.73;0.70;;;;;;;4.97;100.00;97170.66;5075427;28;20205;-79
2023/12/05 10:27:16;;;;;;;2.80;1.00;;;;;;;4.94;100.00;97166.44;5075089;28;20217;-80
2023/12/05 10:29:43;;;;;;;1.87;0.90;;;;;;;5.07;100.00;97169.16;5080498;28;20581;-79
2023/12/05 10:32:12;;;;;;;1.27;0.80;;;;;;;5.16;100.00;97161.56;5079691;28;20555;-79
2023/12/05 10:34:49;;;;;;;1.53;0.90;;;;;;;5.28;100.00;97165.16;5079752;28;20219;-80
2023/12/05 10:37:16;;;;;;;1.33;0.90;;;;;;;5.30;100.00;97168.53;5081268;28;20656;-82
2023/12/05 10:39:43;;;;;;;1.07;0.87;;;;;;;5.37;100.00;97168.03;5077629;28;20214;-80
2023/12/05 10:42:09;;;;;;;1.23;1.00;;;;;;;5.44;100.00;97160.63;5075659;28;20708;-80
2023/12/05 10:44:41;;;;;;;1.03;0.90;;;;;;;5.51;100.00;97161.91;5075788;28;20299;-80
2023/12/05 10:47:07;;;;;;;1.37;0.90;;;;;;;5.58;100.00;97148.34;5062585;28;20708;-78
2023/12/05 10:49:35;;;;;;;2.87;1.30;;;;;;;5.69;100.00;97145.81;5058357;28;20242;-81
2023/12/05 10:52:03;;;;;;;1.43;0.73;;;;;;;5.81;100.00;97147.69;5064329;28;20580;-80
2023/12/05 10:54:29;;;;;;;2.10;0.90;;;;;;;5.90;100.00;97139.22;5062144;28;20203;-81
2023/12/05 10:56:57;;;;;;;1.33;0.80;;;;;;;5.91;100.00;97140.03;5063749;28;20210;-80
2023/12/05 10:59:25;;;;;;;2.07;0.90;;;;;;;5.93;100.00;97149.50;5063094;28;20209;-80
2023/12/05 11:01:54;;;;;;;1.40;0.73;;;;;;;5.97;100.00;97142.25;5063710;28;20232;-80
2023/12/05 11:04:21;;;;;;;1.47;0.93;;;;;;;5.87;100.00;97134.16;5062488;28;20553;-80
2023/12/05 11:06:47;;;;;;;0.70;0.70;;;;;;;5.89;100.00;97136.69;5061171;28;20222;-80
2023/12/05 11:09:14;;;;;;;1.42;0.98;;;;;;;5.86;100.00;97132.50;5057275;28;20482;-79
2023/12/05 11:11:41;;;;;;;1.30;0.80;;;;;;;5.85;100.00;97122.09;5059591;28;20243;-80
2023/12/05 11:14:11;;;;;;;0.67;0.67;;;;;;;5.82;100.00;97131.03;5057537;28;20215;-80
2023/12/05 11:16:43;;;;;;;0.70;0.70;;;;;;;5.90;100.00;97122.63;5055690;28;20215;-81
2023/12/05 11:19:23;;;;;;;1.80;0.60;;;;;;;5.88;100.00;97130.63;5058400;28;20345;-83
2023/12/05 11:21:59;;;;;;;1.60;0.60;;;;;;;5.90;100.00;97128.72;5062259;28;20230;-80
2023/12/05 11:24:54;;;;;;;2.23;0.77;;;;;;;5.86;100.00;97121.19;5062727;28;20213;-80
2023/12/05 11:27:36;;;;;;;0.67;0.67;;;;;;;5.81;100.00;97121.47;5066303;28;20188;-82
2023/12/05 11:30:41;;;;;;;0.80;0.80;;;;;;;5.88;100.00;97124.53;5065764;28;20602;-82
2023/12/05 11:33:15;;;;;;;1.00;0.70;;;;;;;5.81;100.00;97124.09;5064250;28;20555;-81